Dades de l'estació automàtica Alguaire
Resum diari
21:30 TU| Temperatura mitjana | 14.4 °C | |
|---|---|---|
| Temperatura màxima | 20.9 °C | 15:45 TU |
| Temperatura mínima | 9.9 °C | 21:59 TU |
| Humitat relativa mitjana | 87% | |
| Precipitació acumulada | 6.5 mm | |
| Ratxa màxima del vent (10 m) | 68.8 km/h - 305º | 17:08 TU |
| Pressió atmosfèrica mitjana | 1012.4 hPa | |
| Irradiació solar global | 16.2 MJ/m2 | |
El tram horari està expressat en Temps Universal (TU). Cal sumar una hora en horari d'hivern i dues en horari d'estiu per passar a l'hora oficial.
Alguaire
| Municipi | Alguaire |
|---|---|
| Comarca | Segrià |
| Altitud | 371 m |
| Data alta | 02.06.2006 |
| Estat actual | Operativa |
| Període TU |
TM °C |
TX °C |
TN °C |
HRM % |
PPT mm |
VVM (10 m) km/h |
DVM (10 m) graus |
VVX (10 m) km/h |
PM hPa |
RS W/m2 |
|---|---|---|---|---|---|---|---|---|---|---|
| 00:00 - 00:30 | 12.1 | 12.2 | 12.0 | 100 | 0.0 | 14.4 | 87 | 21.2 | 1014.1 | 0 |
| 00:30 - 01:00 | 12.2 | 12.2 | 12.2 | 100 | 0.0 | 15.1 | 98 | 19.4 | 1014.0 | 0 |
| 01:00 - 01:30 | 12.3 | 12.4 | 12.1 | 100 | 0.0 | 16.9 | 95 | 24.8 | 1013.7 | 0 |
| 01:30 - 02:00 | 11.9 | 12.1 | 11.7 | 100 | 0.0 | 13.0 | 101 | 16.6 | 1013.9 | 0 |
| 02:00 - 02:30 | 12.0 | 12.2 | 11.8 | 100 | 0.1 | 7.9 | 140 | 12.2 | 1014.5 | 0 |
| 02:30 - 03:00 | 12.0 | 12.2 | 11.8 | 100 | 2.4 | 10.1 | 78 | 21.6 | 1014.2 | 0 |
| 03:00 - 03:30 | 11.7 | 11.8 | 11.7 | 100 | 0.0 | 24.8 | 71 | 35.6 | 1013.1 | 0 |
| 03:30 - 04:00 | 11.7 | 11.7 | 11.7 | 100 | 0.0 | 23.4 | 82 | 32.4 | 1012.8 | 0 |
| 04:00 - 04:30 | 11.7 | 11.7 | 11.6 | 100 | 0.0 | 18.0 | 99 | 27.0 | 1013.2 | 0 |
| 04:30 - 05:00 | 11.5 | 11.6 | 11.4 | 100 | 0.0 | 17.6 | 108 | 22.7 | 1013.2 | 1 |
| 05:00 - 05:30 | 11.3 | 11.3 | 11.3 | 100 | 0.0 | 12.2 | 107 | 18.4 | 1013.6 | 28 |
| 05:30 - 06:00 | 11.7 | 11.9 | 11.5 | 100 | 0.1 | 11.2 | 79 | 15.8 | 1013.6 | 117 |
| 06:00 - 06:30 | 12.1 | 12.4 | 11.8 | 100 | 0.0 | 12.2 | 73 | 16.6 | 1013.7 | 124 |
| 06:30 - 07:00 | 12.8 | 13.1 | 12.5 | 100 | 0.0 | 14.8 | 68 | 18.0 | 1013.7 | 160 |
| 07:00 - 07:30 | 13.8 | 14.4 | 13.1 | 100 | 0.0 | 15.8 | 76 | 20.9 | 1013.3 | 319 |
| 07:30 - 08:00 | 13.8 | 13.9 | 13.7 | 100 | 0.0 | 14.0 | 75 | 19.4 | 1013.3 | 116 |
| 08:00 - 08:30 | 14.2 | 14.6 | 14.0 | 100 | 0.0 | 10.4 | 60 | 16.9 | 1013.1 | 164 |
| 08:30 - 09:00 | 15.6 | 16.2 | 14.6 | 91 | 0.0 | 9.0 | 107 | 15.8 | 1013.0 | 504 |
| 09:00 - 09:30 | 16.1 | 16.5 | 15.7 | 80 | 0.0 | 8.6 | 103 | 14.4 | 1012.9 | 408 |
| 09:30 - 10:00 | 17.2 | 18.3 | 16.6 | 73 | 0.0 | 5.8 | 101 | 14.4 | 1012.6 | 672 |
| 10:00 - 10:30 | 18.5 | 19.2 | 18.1 | 62 | 0.0 | 5.4 | 93 | 13.0 | 1012.2 | 928 |
| 10:30 - 11:00 | 19.3 | 19.9 | 18.5 | 61 | 0.0 | 5.0 | 110 | 15.1 | 1011.8 | 846 |
| 11:00 - 11:30 | 19.7 | 20.6 | 18.9 | 60 | 0.0 | 4.3 | 128 | 12.6 | 1011.4 | 724 |
| 11:30 - 12:00 | 19.6 | 20.5 | 18.7 | 61 | 0.0 | 10.1 | 251 | 16.6 | 1011.3 | 372 |
| 12:00 - 12:30 | 17.9 | 18.6 | 17.5 | 66 | 0.0 | 10.1 | 233 | 14.0 | 1011.4 | 128 |
| 12:30 - 13:00 | 17.5 | 17.7 | 17.4 | 73 | 0.0 | 11.5 | 237 | 17.6 | 1011.2 | 223 |
| 13:00 - 13:30 | 18.3 | 19.4 | 17.6 | 74 | 0.0 | 10.8 | 242 | 16.9 | 1010.8 | 504 |
| 13:30 - 14:00 | 18.6 | 19.2 | 18.3 | 69 | 0.0 | 7.2 | 244 | 15.1 | 1010.3 | 405 |
| 14:00 - 14:30 | 19.3 | 19.9 | 19.0 | 64 | 0.0 | 6.5 | 246 | 12.2 | 1010.0 | 515 |
| 14:30 - 15:00 | 19.5 | 20.1 | 19.3 | 63 | 0.0 | 7.9 | 253 | 16.9 | 1010.0 | 386 |
| 15:00 - 15:30 | 19.6 | 20.2 | 19.0 | 61 | 0.0 | 11.5 | 252 | 19.8 | 1009.9 | 375 |
| 15:30 - 16:00 | 20.2 | 20.9 | 19.3 | 57 | 0.0 | 10.8 | 256 | 18.0 | 1009.6 | 546 |
| 16:00 - 16:30 | 19.6 | 20.2 | 19.1 | 58 | 0.0 | 7.6 | 213 | 15.8 | 1009.7 | 350 |
| 16:30 - 17:00 | 18.1 | 19.2 | 14.8 | 62 | 0.0 | 23.8 | 266 | 63.0 | 1009.9 | 90 |
| 17:00 - 17:30 | 13.3 | 14.7 | 11.5 | 75 | 0.4 | 47.9 | 310 | 68.8 | 1010.8 | 4 |
| 17:30 - 18:00 | 11.3 | 11.6 | 11.1 | 100 | 1.3 | 21.6 | 324 | 43.2 | 1012.2 | 1 |
| 18:00 - 18:30 | 11.6 | 11.8 | 11.6 | 100 | 1.0 | 5.0 | 248 | 13.3 | 1012.9 | 4 |
| 18:30 - 19:00 | 11.5 | 11.9 | 11.1 | 100 | 1.1 | 10.4 | 114 | 16.6 | 1012.0 | 16 |
| 19:00 - 19:30 | 10.7 | 11.1 | 10.4 | 100 | 0.1 | 5.4 | 117 | 8.6 | 1012.4 | 0 |
| 19:30 - 20:00 | 10.3 | 10.4 | 10.2 | 100 | 0.0 | 9.4 | 149 | 15.1 | 1012.8 | 0 |
| 20:00 - 20:30 | 10.4 | 10.6 | 10.2 | 100 | 0.0 | 11.2 | 190 | 17.3 | 1013.5 | 0 |
| 20:30 - 21:00 | 10.5 | 10.6 | 10.3 | 100 | 0.0 | 10.1 | 230 | 14.4 | 1013.9 | 0 |
| 21:00 - 21:30 | 10.4 | 10.5 | 10.2 | 100 | 0.0 | 7.6 | 264 | 14.4 | 1014.2 | 0 |
| 21:30 - 22:00 | 10.1 | 10.2 | 9.9 | 100 | 0.0 | 4.3 | 2 | 7.2 | 1014.0 | 0 |
| 22:00 - 22:30 | (s/d) | (s/d) | (s/d) | (s/d) | (s/d) | (s/d) | (s/d) | (s/d) | (s/d) | (s/d) |
Les dades en taronja només han passat un control de qualitat automàtic. Resta pendent la seva validació definitiva.